Time;durP1;ratioP1;P1;durP2;ratioP2;P2;SDS_P1;SDS_P2;PMS_P1;PMS_P2;Temp;Humidity;BMP_temperature;BMP_pressure;BME280_temperature;BME280_humidity;BME280_pressure;Samples;Min_cycle;Max_cycle;Signal;HPM_P1;HPM_P2
2021/10/26 00:01:11;;;;;;;;;;;20.30;48.00;;;;;;495037;239;1357;-47
2021/10/26 00:03:12;;;;;;;;;;;20.20;47.90;;;;;;494703;239;1000;-47
2021/10/26 00:05:14;;;;;;;;;;;20.20;47.90;;;;;;495111;239;1110;-47
2021/10/26 00:07:15;;;;;;;;;;;20.20;48.00;;;;;;494949;239;1325;-47
2021/10/26 00:09:16;;;;;;;;;;;20.20;47.90;;;;;;494742;239;1918;-47
2021/10/26 00:11:18;;;;;;;;;;;20.30;47.90;;;;;;495232;239;1355;-47
2021/10/26 00:13:19;;;;;;;;;;;20.20;48.00;;;;;;495247;239;1228;-46
2021/10/26 00:15:20;;;;;;;;;;;20.20;48.00;;;;;;494891;239;2186;-47
2021/10/26 00:17:22;;;;;;;;;;;20.20;48.00;;;;;;494772;239;1261;-47
2021/10/26 00:19:24;;;;;;;;;;;20.30;47.90;;;;;;495260;239;1045;-47
2021/10/26 00:21:24;;;;;;;;;;;20.30;47.90;;;;;;494666;241;2418;-47
2021/10/26 00:23:26;;;;;;;;;;;20.20;47.90;;;;;;495038;239;1084;-47
2021/10/26 00:25:27;;;;;;;;;;;20.30;48.00;;;;;;495144;239;1089;-47
2021/10/26 00:27:28;;;;;;;;;;;20.30;47.90;;;;;;495197;239;1281;-47
2021/10/26 00:29:29;;;;;;;;;;;20.30;47.80;;;;;;494797;239;1201;-47
2021/10/26 00:31:32;;;;;;;;;;;20.20;47.90;;;;;;494758;239;1125;-47
2021/10/26 00:33:32;;;;;;;;;;;20.30;48.00;;;;;;494795;239;2145;-47
2021/10/26 00:35:33;;;;;;;;;;;20.20;47.90;;;;;;494737;239;2186;-47
2021/10/26 00:37:36;;;;;;;;;;;20.20;47.90;;;;;;495240;239;1237;-47
2021/10/26 00:39:36;;;;;;;;;;;20.30;47.90;;;;;;494796;239;1865;-47
2021/10/26 00:41:37;;;;;;;;;;;20.30;48.00;;;;;;495122;239;1396;-47
2021/10/26 00:43:39;;;;;;;;;;;20.30;47.90;;;;;;495044;239;1048;-47
2021/10/26 00:45:40;;;;;;;;;;;20.30;47.80;;;;;;494938;239;1170;-47
2021/10/26 00:47:41;;;;;;;;;;;20.30;47.80;;;;;;494671;239;1165;-47
2021/10/26 00:49:43;;;;;;;;;;;20.30;47.90;;;;;;495026;239;1105;-47
2021/10/26 00:51:45;;;;;;;;;;;20.20;47.90;;;;;;494708;239;1361;-47
2021/10/26 00:53:45;;;;;;;;;;;20.20;47.90;;;;;;494699;241;2260;-47
2021/10/26 00:55:47;;;;;;;;;;;20.20;47.90;;;;;;495191;239;2127;-47
2021/10/26 00:57:48;;;;;;;;;;;20.30;47.90;;;;;;495046;239;1060;-47
2021/10/26 00:59:49;;;;;;;;;;;20.20;47.90;;;;;;495072;239;1198;-46
2021/10/26 01:01:51;;;;;;;;;;;20.30;47.90;;;;;;495113;239;1020;-47
2021/10/26 01:03:52;;;;;;;;;;;20.30;47.90;;;;;;494928;239;1096;-46
2021/10/26 01:05:53;;;;;;;;;;;20.30;47.90;;;;;;495036;239;1083;-47
2021/10/26 01:07:54;;;;;;;;;;;20.20;47.80;;;;;;494926;239;1098;-47
2021/10/26 01:09:56;;;;;;;;;;;20.20;47.80;;;;;;495194;239;1038;-46
2021/10/26 01:11:57;;;;;;;;;;;20.20;47.80;;;;;;495187;239;1166;-47
2021/10/26 01:13:58;;;;;;;;;;;20.30;47.80;;;;;;495119;239;1203;-47
2021/10/26 01:16:00;;;;;;;;;;;20.30;47.90;;;;;;494795;239;2190;-47
2021/10/26 01:18:01;;;;;;;;;;;20.30;47.80;;;;;;494857;239;1190;-47
2021/10/26 01:20:03;;;;;;;;;;;20.30;47.90;;;;;;494777;239;1072;-47
2021/10/26 01:22:04;;;;;;;;;;;20.30;47.90;;;;;;495172;239;1213;-46
2021/10/26 01:24:05;;;;;;;;;;;20.20;47.80;;;;;;495266;239;1061;-46
2021/10/26 01:26:07;;;;;;;;;;;20.20;47.80;;;;;;495193;239;1106;-47
2021/10/26 01:28:08;;;;;;;;;;;20.20;47.80;;;;;;494688;239;1083;-46
2021/10/26 01:30:09;;;;;;;;;;;20.20;47.90;;;;;;494705;237;1296;-47
2021/10/26 01:32:10;;;;;;;;;;;20.20;47.80;;;;;;494965;239;1068;-47
2021/10/26 01:34:12;;;;;;;;;;;20.20;47.80;;;;;;495255;239;1053;-47
2021/10/26 01:36:14;;;;;;;;;;;20.20;47.90;;;;;;494732;239;2194;-47
2021/10/26 01:38:15;;;;;;;;;;;20.20;47.90;;;;;;494831;239;1599;-47
2021/10/26 01:40:16;;;;;;;;;;;20.20;47.80;;;;;;495163;239;1426;-47
2021/10/26 01:42:17;;;;;;;;;;;20.20;47.80;;;;;;495275;239;1086;-47
2021/10/26 01:44:18;;;;;;;;;;;20.20;47.80;;;;;;494857;239;1098;-46
2021/10/26 01:46:20;;;;;;;;;;;20.30;47.80;;;;;;494811;239;1326;-46
2021/10/26 01:48:21;;;;;;;;;;;20.20;47.90;;;;;;495303;239;1506;-47
2021/10/26 01:50:23;;;;;;;;;;;20.20;47.90;;;;;;495245;239;1087;-47
2021/10/26 01:52:24;;;;;;;;;;;20.20;48.00;;;;;;494878;239;1500;-46
2021/10/26 01:54:25;;;;;;;;;;;20.20;47.90;;;;;;495266;239;1194;-47
2021/10/26 01:56:27;;;;;;;;;;;20.20;47.90;;;;;;494783;239;2179;-46
2021/10/26 01:58:28;;;;;;;;;;;20.20;47.90;;;;;;494787;239;1190;-47
2021/10/26 02:00:30;;;;;;;;;;;20.20;47.90;;;;;;495015;239;1177;-47
2021/10/26 02:02:31;;;;;;;;;;;20.20;47.90;;;;;;494937;239;1312;-47
2021/10/26 02:04:32;;;;;;;;;;;20.20;47.90;;;;;;495234;239;1075;-47
2021/10/26 02:06:33;;;;;;;;;;;20.20;47.80;;;;;;494721;239;1227;-46
2021/10/26 02:08:35;;;;;;;;;;;20.30;47.80;;;;;;494795;239;1134;-47
2021/10/26 02:10:36;;;;;;;;;;;20.20;47.80;;;;;;494985;239;965;-47
2021/10/26 02:12:38;;;;;;;;;;;20.30;47.80;;;;;;495190;239;1050;-47
2021/10/26 02:14:39;;;;;;;;;;;20.20;47.80;;;;;;494814;239;1102;-47
2021/10/26 02:16:40;;;;;;;;;;;20.20;47.80;;;;;;494742;239;2186;-47
2021/10/26 02:18:42;;;;;;;;;;;20.20;47.80;;;;;;494854;239;1215;-47
2021/10/26 02:20:43;;;;;;;;;;;20.20;47.90;;;;;;494786;239;1513;-47
2021/10/26 02:22:44;;;;;;;;;;;20.20;47.80;;;;;;494848;239;1047;-47
2021/10/26 02:24:46;;;;;;;;;;;20.20;47.90;;;;;;495016;239;1059;-47
2021/10/26 02:26:47;;;;;;;;;;;20.20;47.80;;;;;;495215;239;1037;-47
2021/10/26 02:28:48;;;;;;;;;;;20.20;47.80;;;;;;495293;239;1138;-47
2021/10/26 02:30:50;;;;;;;;;;;20.20;47.80;;;;;;494917;239;1282;-47
2021/10/26 02:32:51;;;;;;;;;;;20.20;47.80;;;;;;495225;239;1118;-47
2021/10/26 02:34:52;;;;;;;;;;;20.20;47.80;;;;;;495285;239;1013;-46
2021/10/26 02:36:54;;;;;;;;;;;20.20;47.80;;;;;;494661;239;2187;-46
2021/10/26 02:38:55;;;;;;;;;;;20.20;47.80;;;;;;494927;239;1100;-47
2021/10/26 02:40:56;;;;;;;;;;;20.10;47.80;;;;;;495187;239;1229;-47
2021/10/26 02:42:58;;;;;;;;;;;20.20;47.80;;;;;;495270;239;1198;-47
2021/10/26 02:44:59;;;;;;;;;;;20.30;47.80;;;;;;495307;239;1061;-47
2021/10/26 02:47:00;;;;;;;;;;;20.20;47.80;;;;;;494673;239;1224;-47
2021/10/26 02:49:01;;;;;;;;;;;20.20;47.80;;;;;;494774;239;1057;-47
2021/10/26 02:51:03;;;;;;;;;;;20.20;47.90;;;;;;494870;239;1453;-47
2021/10/26 02:53:04;;;;;;;;;;;20.20;47.90;;;;;;494755;239;1159;-47
2021/10/26 02:55:05;;;;;;;;;;;20.20;47.80;;;;;;494928;239;1111;-47
2021/10/26 02:57:07;;;;;;;;;;;20.20;47.90;;;;;;494664;239;2191;-47
2021/10/26 02:59:08;;;;;;;;;;;20.20;47.80;;;;;;494823;239;1290;-47
2021/10/26 03:01:10;;;;;;;;;;;20.20;47.80;;;;;;494710;239;1163;-47
2021/10/26 03:03:11;;;;;;;;;;;20.20;48.00;;;;;;494941;239;1100;-47
2021/10/26 03:05:12;;;;;;;;;;;20.20;47.90;;;;;;495247;239;1027;-47
2021/10/26 03:07:13;;;;;;;;;;;20.10;47.90;;;;;;495202;239;1062;-47
2021/10/26 03:09:15;;;;;;;;;;;20.20;47.90;;;;;;494813;239;1076;-47
2021/10/26 03:11:16;;;;;;;;;;;20.20;47.80;;;;;;494711;239;1095;-46
2021/10/26 03:13:17;;;;;;;;;;;20.20;47.80;;;;;;495261;239;1056;-47
2021/10/26 03:15:19;;;;;;;;;;;20.20;47.80;;;;;;495234;239;1467;-47
2021/10/26 03:17:20;;;;;;;;;;;20.20;47.90;;;;;;494772;239;2131;-47
2021/10/26 03:19:21;;;;;;;;;;;20.20;47.90;;;;;;495201;239;1054;-47
2021/10/26 03:21:23;;;;;;;;;;;20.20;47.80;;;;;;495220;239;1195;-47
2021/10/26 03:23:24;;;;;;;;;;;20.20;47.80;;;;;;494836;239;1230;-47
2021/10/26 03:25:25;;;;;;;;;;;20.20;47.80;;;;;;494979;239;1257;-47
2021/10/26 03:27:26;;;;;;;;;;;20.20;47.70;;;;;;494678;239;1214;-47
2021/10/26 03:29:28;;;;;;;;;;;20.20;47.80;;;;;;494993;239;1059;-47
2021/10/26 03:31:29;;;;;;;;;;;20.20;47.70;;;;;;495062;239;1215;-47
2021/10/26 03:33:30;;;;;;;;;;;20.30;47.70;;;;;;495276;239;1054;-47
2021/10/26 03:35:32;;;;;;;;;;;20.20;47.70;;;;;;495176;239;1066;-47
2021/10/26 03:37:35;;;;;;;;;;;20.20;47.80;;;;;;495173;239;2136;-47
2021/10/26 03:39:34;;;;;;;;;;;20.20;47.70;;;;;;495141;241;2213;-46
2021/10/26 03:41:36;;;;;;;;;;;20.20;47.70;;;;;;494666;239;1232;-47
2021/10/26 03:43:37;;;;;;;;;;;20.20;47.80;;;;;;495275;239;1080;-47
2021/10/26 03:45:38;;;;;;;;;;;20.20;47.80;;;;;;495196;239;1355;-47
2021/10/26 03:47:40;;;;;;;;;;;20.20;47.80;;;;;;494753;239;1227;-47
2021/10/26 03:49:41;;;;;;;;;;;20.20;47.80;;;;;;495298;239;1030;-47
2021/10/26 03:51:42;;;;;;;;;;;20.20;47.80;;;;;;495189;239;1332;-47
2021/10/26 03:53:44;;;;;;;;;;;20.20;47.80;;;;;;495274;239;1107;-47
2021/10/26 03:55:45;;;;;;;;;;;20.20;47.70;;;;;;495127;239;1352;-47
2021/10/26 03:57:46;;;;;;;;;;;20.20;47.70;;;;;;494729;239;2183;-47
2021/10/26 03:59:48;;;;;;;;;;;20.20;47.60;;;;;;494776;239;996;-47
2021/10/26 04:01:50;;;;;;;;;;;20.20;47.70;;;;;;494843;239;1265;-47
2021/10/26 04:03:51;;;;;;;;;;;20.20;47.70;;;;;;494752;239;1067;-46
2021/10/26 04:05:59;;;;;;;;;;;20.20;47.70;;;;;;495237;239;1075;-47
2021/10/26 04:08:01;;;;;;;;;;;20.20;47.80;;;;;;494479;241;1944;-47
2021/10/26 04:10:02;;;;;;;;;;;20.10;47.70;;;;;;494572;241;2524;-47
2021/10/26 04:12:18;;;;;;;;;;;20.20;47.80;;;;;;494430;241;2097;-47
2021/10/26 04:14:09;;;;;;;;;;;20.20;47.80;;;;;;494106;241;2232;-47
2021/10/26 04:16:10;;;;;;;;;;;20.20;47.70;;;;;;494838;239;2171;-47
2021/10/26 04:18:11;;;;;;;;;;;20.20;47.70;;;;;;494651;239;1665;-47
2021/10/26 04:20:12;;;;;;;;;;;20.20;47.70;;;;;;495152;239;1344;-47
2021/10/26 04:22:14;;;;;;;;;;;20.20;47.60;;;;;;494953;239;1202;-47
2021/10/26 04:24:15;;;;;;;;;;;20.20;47.70;;;;;;494835;239;1027;-47
2021/10/26 04:26:18;;;;;;;;;;;20.20;47.70;;;;;;494594;239;1360;-47
2021/10/26 04:28:18;;;;;;;;;;;20.20;47.60;;;;;;494632;241;2438;-47
2021/10/26 04:30:21;;;;;;;;;;;20.20;47.60;;;;;;494645;239;1262;-47
2021/10/26 04:32:20;;;;;;;;;;;20.20;47.70;;;;;;494505;241;1648;-47
2021/10/26 04:34:22;;;;;;;;;;;20.20;47.70;;;;;;495128;239;1063;-47
2021/10/26 04:36:23;;;;;;;;;;;20.10;47.60;;;;;;494843;239;2119;-47
2021/10/26 04:38:24;;;;;;;;;;;20.20;47.70;;;;;;494511;239;1051;-47
2021/10/26 04:40:26;;;;;;;;;;;20.20;47.70;;;;;;494513;239;1242;-47
2021/10/26 04:42:27;;;;;;;;;;;20.20;47.70;;;;;;494709;239;1612;-46
2021/10/26 04:44:29;;;;;;;;;;;20.30;47.60;;;;;;494679;239;974;-47
2021/10/26 04:46:30;;;;;;;;;;;20.20;47.60;;;;;;494807;239;1179;-47
2021/10/26 04:48:31;;;;;;;;;;;20.20;47.60;;;;;;494639;239;1212;-47
2021/10/26 04:50:33;;;;;;;;;;;20.20;47.70;;;;;;494725;239;1202;-47
2021/10/26 04:52:34;;;;;;;;;;;20.20;47.70;;;;;;494693;239;1611;-47
2021/10/26 04:54:35;;;;;;;;;;;20.20;47.60;;;;;;494663;239;1039;-47
2021/10/26 04:56:37;;;;;;;;;;;20.20;47.60;;;;;;494480;239;2195;-47
2021/10/26 04:58:38;;;;;;;;;;;20.20;47.70;;;;;;495020;239;1054;-46
2021/10/26 05:00:39;;;;;;;;;;;20.20;47.70;;;;;;495001;239;1077;-47
2021/10/26 05:02:41;;;;;;;;;;;20.20;47.60;;;;;;494558;239;1299;-47
2021/10/26 05:04:42;;;;;;;;;;;20.30;47.60;;;;;;494618;239;1085;-47
2021/10/26 05:06:43;;;;;;;;;;;20.30;47.60;;;;;;494430;239;1315;-47
2021/10/26 05:08:45;;;;;;;;;;;20.20;47.60;;;;;;494691;239;1094;-47
2021/10/26 05:10:46;;;;;;;;;;;20.20;47.50;;;;;;494567;239;1133;-47
2021/10/26 05:12:47;;;;;;;;;;;20.20;47.60;;;;;;494438;239;1352;-47
2021/10/26 05:14:49;;;;;;;;;;;20.20;47.60;;;;;;494522;239;1067;-47
2021/10/26 05:16:50;;;;;;;;;;;20.20;47.60;;;;;;494803;239;2162;-47
2021/10/26 05:18:53;;;;;;;;;;;20.20;47.70;;;;;;494454;239;1190;-47
2021/10/26 05:20:53;;;;;;;;;;;20.20;47.60;;;;;;494507;239;1461;-47
2021/10/26 05:22:55;;;;;;;;;;;20.20;47.60;;;;;;494386;239;2066;-47
2021/10/26 05:24:56;;;;;;;;;;;20.20;47.60;;;;;;494824;239;2046;-47
2021/10/26 05:26:57;;;;;;;;;;;20.20;47.60;;;;;;494372;239;1321;-47
2021/10/26 05:28:58;;;;;;;;;;;20.20;47.60;;;;;;494418;239;1042;-47
2021/10/26 05:31:00;;;;;;;;;;;20.20;47.60;;;;;;494526;239;1746;-47
2021/10/26 05:33:01;;;;;;;;;;;20.20;47.60;;;;;;494779;239;1228;-47
2021/10/26 05:35:02;;;;;;;;;;;20.20;47.60;;;;;;494420;239;1043;-47
2021/10/26 05:37:04;;;;;;;;;;;20.20;47.60;;;;;;494356;239;2206;-47
2021/10/26 05:39:05;;;;;;;;;;;20.20;47.60;;;;;;494377;239;1073;-47
2021/10/26 05:41:06;;;;;;;;;;;20.20;47.50;;;;;;494334;239;1300;-47
2021/10/26 05:43:08;;;;;;;;;;;20.20;47.50;;;;;;494576;239;1081;-47
2021/10/26 05:45:09;;;;;;;;;;;20.20;47.60;;;;;;494414;239;2175;-47
2021/10/26 05:47:10;;;;;;;;;;;20.20;47.60;;;;;;494211;239;1109;-46
2021/10/26 05:49:12;;;;;;;;;;;20.20;47.60;;;;;;494362;239;1311;-47
2021/10/26 05:51:13;;;;;;;;;;;20.20;47.50;;;;;;494372;239;1330;-47
2021/10/26 05:53:14;;;;;;;;;;;20.20;47.60;;;;;;494556;239;1083;-47
2021/10/26 05:55:15;;;;;;;;;;;20.20;47.60;;;;;;494539;239;1326;-47
2021/10/26 05:57:17;;;;;;;;;;;20.20;47.60;;;;;;494454;239;2182;-47
2021/10/26 05:59:18;;;;;;;;;;;20.20;47.60;;;;;;494475;239;1052;-47
2021/10/26 06:01:21;;;;;;;;;;;20.20;47.60;;;;;;494380;239;1158;-47
2021/10/26 06:03:21;;;;;;;;;;;20.20;47.60;;;;;;494062;241;1376;-47
2021/10/26 06:05:22;;;;;;;;;;;20.20;47.60;;;;;;494220;239;1340;-47
2021/10/26 06:07:23;;;;;;;;;;;20.20;47.60;;;;;;494408;239;1197;-47
2021/10/26 06:09:28;;;;;;;;;;;20.30;47.60;;;;;;494186;239;1044;-47
2021/10/26 06:11:26;;;;;;;;;;;20.30;47.50;;;;;;494023;241;1496;-47
2021/10/26 06:13:30;;;;;;;;;;;20.20;47.50;;;;;;494383;239;1065;-47
2021/10/26 06:15:29;;;;;;;;;;;20.30;47.60;;;;;;494095;239;2116;-47
2021/10/26 06:17:30;;;;;;;;;;;20.20;47.50;;;;;;494139;239;2183;-47
2021/10/26 06:19:31;;;;;;;;;;;20.20;47.50;;;;;;494411;239;1129;-47
2021/10/26 06:21:33;;;;;;;;;;;20.20;47.60;;;;;;494310;239;1192;-47
2021/10/26 06:23:34;;;;;;;;;;;20.30;47.40;;;;;;494147;239;1104;-47
2021/10/26 06:25:36;;;;;;;;;;;20.50;47.10;;;;;;494083;239;1204;-46
2021/10/26 06:27:37;;;;;;;;;;;20.60;46.70;;;;;;494177;239;1079;-47
2021/10/26 06:29:38;;;;;;;;;;;20.80;46.40;;;;;;494536;239;1404;-47
2021/10/26 06:31:40;;;;;;;;;;;20.80;46.10;;;;;;494362;239;1087;-47
2021/10/26 06:33:41;;;;;;;;;;;20.90;46.00;;;;;;494227;237;1324;-47
2021/10/26 06:35:43;;;;;;;;;;;21.00;45.90;;;;;;494237;239;1091;-47
2021/10/26 06:37:44;;;;;;;;;;;21.00;45.70;;;;;;494275;239;2175;-46
2021/10/26 06:39:45;;;;;;;;;;;21.10;45.60;;;;;;494133;239;1146;-47
2021/10/26 06:41:47;;;;;;;;;;;21.20;45.60;;;;;;494215;239;1174;-47
2021/10/26 06:43:48;;;;;;;;;;;21.20;45.50;;;;;;494246;239;1186;-47
2021/10/26 06:45:49;;;;;;;;;;;21.20;45.40;;;;;;494179;239;1229;-47
2021/10/26 06:47:51;;;;;;;;;;;21.30;45.30;;;;;;494210;239;1258;-47
2021/10/26 06:49:52;;;;;;;;;;;21.30;45.20;;;;;;494399;239;1205;-47
2021/10/26 06:51:53;;;;;;;;;;;21.30;45.10;;;;;;494584;239;1333;-47
2021/10/26 06:53:55;;;;;;;;;;;21.30;45.10;;;;;;493900;239;1335;-47
2021/10/26 06:56:03;;;;;;;;;;;21.40;45.10;;;;;;493604;239;1369;-47
2021/10/26 06:57:58;;;;;;;;;;;21.40;45.10;;;;;;493746;241;2231;-47
2021/10/26 06:59:59;;;;;;;;;;;21.40;45.10;;;;;;494104;239;1127;-47
2021/10/26 07:02:01;;;;;;;;;;;21.40;45.00;;;;;;494016;239;1629;-47
2021/10/26 07:04:03;;;;;;;;;;;21.40;44.90;;;;;;494183;239;1124;-47
2021/10/26 07:06:04;;;;;;;;;;;21.40;44.80;;;;;;494110;239;1440;-47
2021/10/26 07:08:05;;;;;;;;;;;21.50;44.80;;;;;;494024;239;1238;-47
2021/10/26 07:10:06;;;;;;;;;;;21.50;44.80;;;;;;494041;239;1359;-47
2021/10/26 07:12:08;;;;;;;;;;;21.50;44.70;;;;;;493895;239;1264;-47
2021/10/26 07:14:09;;;;;;;;;;;21.50;44.70;;;;;;493955;239;1216;-47
2021/10/26 07:16:11;;;;;;;;;;;21.50;44.70;;;;;;493950;239;1322;-47
2021/10/26 07:18:12;;;;;;;;;;;21.50;44.60;;;;;;493886;239;2191;-47
2021/10/26 07:20:13;;;;;;;;;;;21.60;44.70;;;;;;494001;239;1178;-47
2021/10/26 07:22:15;;;;;;;;;;;21.60;44.60;;;;;;494078;239;1158;-47
2021/10/26 07:24:16;;;;;;;;;;;21.60;44.60;;;;;;494115;239;1098;-47
2021/10/26 07:26:17;;;;;;;;;;;21.60;44.50;;;;;;494073;239;1298;-47
2021/10/26 07:28:20;;;;;;;;;;;21.60;44.50;;;;;;494075;239;1167;-47
2021/10/26 07:30:20;;;;;;;;;;;21.70;44.50;;;;;;493929;241;2341;-47
2021/10/26 07:32:21;;;;;;;;;;;21.70;44.50;;;;;;493934;239;1216;-47
2021/10/26 07:34:22;;;;;;;;;;;21.70;44.50;;;;;;494071;239;1076;-47
2021/10/26 07:36:27;;;;;;;;;;;21.70;44.50;;;;;;493869;239;1293;-47
2021/10/26 07:38:30;;;;;;;;;;;21.70;44.40;;;;;;493800;241;2120;-47
2021/10/26 07:40:30;;;;;;;;;;;21.70;44.40;;;;;;493915;239;2232;-47
2021/10/26 07:42:31;;;;;;;;;;;21.70;44.30;;;;;;493994;239;1200;-47
2021/10/26 07:44:33;;;;;;;;;;;21.70;44.30;;;;;;493971;239;1078;-47
2021/10/26 07:46:34;;;;;;;;;;;21.80;44.30;;;;;;493970;239;1332;-47
2021/10/26 07:48:35;;;;;;;;;;;21.70;44.30;;;;;;493869;239;1188;-47
2021/10/26 07:50:36;;;;;;;;;;;21.80;44.30;;;;;;494084;239;1248;-47
2021/10/26 07:52:38;;;;;;;;;;;21.80;44.30;;;;;;493990;239;1300;-47
2021/10/26 07:54:39;;;;;;;;;;;21.80;44.30;;;;;;493917;239;1065;-47
2021/10/26 07:56:40;;;;;;;;;;;21.80;44.30;;;;;;493912;239;1192;-47
2021/10/26 07:58:42;;;;;;;;;;;21.80;44.30;;;;;;493797;239;2206;-47
2021/10/26 08:00:43;;;;;;;;;;;21.80;44.20;;;;;;493967;239;1174;-47
2021/10/26 08:02:45;;;;;;;;;;;21.90;44.20;;;;;;493806;239;1329;-47
2021/10/26 08:04:46;;;;;;;;;;;21.90;44.20;;;;;;493939;241;1393;-47
2021/10/26 08:06:47;;;;;;;;;;;21.90;44.20;;;;;;493886;239;1143;-48
2021/10/26 08:08:49;;;;;;;;;;;21.90;44.20;;;;;;493747;239;1108;-47
2021/10/26 08:10:51;;;;;;;;;;;21.90;44.20;;;;;;493691;239;1382;-47
2021/10/26 08:12:52;;;;;;;;;;;21.90;44.20;;;;;;493931;239;1071;-47
2021/10/26 08:14:53;;;;;;;;;;;21.90;44.20;;;;;;494065;239;1075;-47
2021/10/26 08:16:54;;;;;;;;;;;21.90;44.10;;;;;;493943;239;1236;-47
2021/10/26 08:18:56;;;;;;;;;;;21.90;44.10;;;;;;493610;239;2194;-47
2021/10/26 08:20:57;;;;;;;;;;;21.90;44.20;;;;;;493991;239;1152;-47
2021/10/26 08:22:58;;;;;;;;;;;21.90;44.20;;;;;;494006;239;1391;-47
2021/10/26 08:25:05;;;;;;;;;;;21.90;44.20;;;;;;493740;239;1182;-47
2021/10/26 08:27:04;;;;;;;;;;;21.90;44.10;;;;;;492910;241;2086;-47
2021/10/26 08:29:08;;;;;;;;;;;21.90;44.10;;;;;;493649;239;1927;-47
2021/10/26 08:31:14;;;;;;;;;;;22.00;44.20;;;;;;493822;241;2215;-47
2021/10/26 08:33:17;;;;;;;;;;;22.00;44.10;;;;;;493361;241;1812;-47
2021/10/26 08:35:22;;;;;;;;;;;22.00;44.20;;;;;;493624;241;2383;-48
2021/10/26 08:37:21;;;;;;;;;;;22.00;44.20;;;;;;494023;241;2616;-47
2021/10/26 08:39:23;;;;;;;;;;;22.00;44.20;;;;;;493971;239;2191;-47
2021/10/26 08:41:26;;;;;;;;;;;22.00;44.10;;;;;;493898;239;1227;-47
2021/10/26 08:43:25;;;;;;;;;;;22.00;44.10;;;;;;493866;239;2306;-47
2021/10/26 08:45:28;;;;;;;;;;;22.00;44.20;;;;;;493928;239;1331;-47
2021/10/26 08:47:28;;;;;;;;;;;22.00;44.20;;;;;;493973;241;2296;-47
2021/10/26 08:49:29;;;;;;;;;;;22.00;44.10;;;;;;493878;239;1075;-47
2021/10/26 08:51:31;;;;;;;;;;;22.00;44.10;;;;;;493793;239;1319;-47
2021/10/26 08:53:32;;;;;;;;;;;22.00;44.10;;;;;;493934;239;1111;-47
2021/10/26 08:55:36;;;;;;;;;;;22.00;44.10;;;;;;493664;239;1090;-47
2021/10/26 08:57:35;;;;;;;;;;;22.10;44.10;;;;;;493503;241;2004;-47
2021/10/26 08:59:37;;;;;;;;;;;22.00;44.10;;;;;;493945;239;2190;-47
2021/10/26 09:01:38;;;;;;;;;;;22.00;44.10;;;;;;494404;239;1249;-47
2021/10/26 09:03:39;;;;;;;;;;;22.10;44.10;;;;;;494155;239;842;-47
2021/10/26 09:05:41;;;;;;;;;;;22.10;44.10;;;;;;494471;239;1161;-47
2021/10/26 09:07:42;;;;;;;;;;;22.10;44.10;;;;;;494693;239;1039;-47
2021/10/26 09:09:43;;;;;;;;;;;22.10;44.10;;;;;;493891;239;1204;-47
2021/10/26 09:16:39;;;;;;;;;;;22.10;44.10;;;;;;494122;239;1341;-47
2021/10/26 09:18:24;;;;;;;;;;;22.10;44.10;;;;;;493620;241;2123;-47
2021/10/26 09:20:27;;;;;;;;;;;22.10;44.00;;;;;;493838;239;1137;-47
2021/10/26 09:22:28;;;;;;;;;;;22.10;44.10;;;;;;493628;241;2010;-47
2021/10/26 09:24:29;;;;;;;;;;;22.10;44.10;;;;;;493927;239;1088;-47
2021/10/26 09:26:30;;;;;;;;;;;22.10;44.10;;;;;;493868;239;1351;-47
2021/10/26 09:28:32;;;;;;;;;;;22.10;44.10;;;;;;493992;239;1105;-47
2021/10/26 09:30:33;;;;;;;;;;;22.10;44.10;;;;;;494040;239;1060;-47
2021/10/26 09:32:34;;;;;;;;;;;22.10;44.10;;;;;;494040;239;1236;-47
2021/10/26 09:34:36;;;;;;;;;;;22.10;44.10;;;;;;493941;239;1199;-47
2021/10/26 09:36:39;;;;;;;;;;;22.10;44.10;;;;;;494011;239;1299;-47
2021/10/26 09:38:39;;;;;;;;;;;22.10;44.10;;;;;;494048;239;2171;-47
2021/10/26 09:40:40;;;;;;;;;;;22.10;44.10;;;;;;493791;239;1266;-47
2021/10/26 09:42:43;;;;;;;;;;;22.10;44.10;;;;;;493735;239;1257;-47
2021/10/26 09:44:43;;;;;;;;;;;22.10;44.00;;;;;;493719;241;2208;-48
2021/10/26 09:46:44;;;;;;;;;;;22.10;44.10;;;;;;494041;239;1456;-47
2021/10/26 09:48:46;;;;;;;;;;;22.20;44.10;;;;;;494386;239;1082;-47
2021/10/26 09:50:47;;;;;;;;;;;22.10;44.10;;;;;;493977;239;1119;-47
2021/10/26 09:52:48;;;;;;;;;;;22.10;44.10;;;;;;494265;239;1179;-47
2021/10/26 09:54:50;;;;;;;;;;;22.10;44.10;;;;;;494331;239;847;-47
2021/10/26 09:56:51;;;;;;;;;;;22.10;44.10;;;;;;493829;239;1314;-47
2021/10/26 09:58:52;;;;;;;;;;;22.20;44.10;;;;;;494631;239;2186;-47
2021/10/26 10:00:55;;;;;;;;;;;22.20;44.10;;;;;;493863;239;1195;-47
2021/10/26 10:02:55;;;;;;;;;;;22.20;44.10;;;;;;494230;239;2009;-47
2021/10/26 10:04:58;;;;;;;;;;;22.10;44.00;;;;;;494153;239;1216;-46
2021/10/26 10:06:58;;;;;;;;;;;22.20;44.10;;;;;;493975;241;2228;-47
2021/10/26 10:08:59;;;;;;;;;;;22.20;44.10;;;;;;493929;239;1155;-47
2021/10/26 10:11:00;;;;;;;;;;;22.20;44.10;;;;;;493902;239;1332;-47
2021/10/26 10:13:02;;;;;;;;;;;22.20;44.00;;;;;;494004;239;1285;-47
2021/10/26 10:15:05;;;;;;;;;;;22.20;44.10;;;;;;494009;239;1147;-47
2021/10/26 10:17:05;;;;;;;;;;;22.20;44.10;;;;;;493848;239;2000;-47
2021/10/26 10:19:08;;;;;;;;;;;22.20;44.10;;;;;;493891;239;2223;-47
2021/10/26 10:21:08;;;;;;;;;;;22.20;44.10;;;;;;493676;241;2073;-47
2021/10/26 10:23:09;;;;;;;;;;;22.20;44.10;;;;;;493932;239;1382;-47
2021/10/26 10:25:10;;;;;;;;;;;22.20;44.10;;;;;;494082;239;1397;-47
2021/10/26 10:27:14;;;;;;;;;;;22.20;44.10;;;;;;494165;239;2000;-47
2021/10/26 10:29:14;;;;;;;;;;;22.20;44.10;;;;;;494024;241;1350;-48
2021/10/26 10:31:16;;;;;;;;;;;22.20;44.10;;;;;;494057;239;1393;-47
2021/10/26 10:33:16;;;;;;;;;;;22.20;44.00;;;;;;494265;241;2251;-47
2021/10/26 10:35:18;;;;;;;;;;;22.20;44.10;;;;;;494007;239;1339;-48
2021/10/26 10:37:19;;;;;;;;;;;22.30;44.10;;;;;;493877;239;1230;-47
2021/10/26 10:39:24;;;;;;;;;;;22.20;44.00;;;;;;493814;239;2112;-47
2021/10/26 10:41:23;;;;;;;;;;;22.30;44.00;;;;;;493577;241;1546;-47
2021/10/26 10:43:24;;;;;;;;;;;22.30;44.10;;;;;;493949;241;2006;-47
2021/10/26 10:45:25;;;;;;;;;;;22.30;44.10;;;;;;493910;239;1186;-46
2021/10/26 10:47:26;;;;;;;;;;;22.30;44.10;;;;;;494195;239;1224;-47
2021/10/26 10:49:28;;;;;;;;;;;22.30;44.10;;;;;;494071;239;1105;-47
2021/10/26 10:51:29;;;;;;;;;;;22.30;44.10;;;;;;493686;239;1248;-47
2021/10/26 10:53:30;;;;;;;;;;;22.30;44.10;;;;;;493795;239;1227;-47
2021/10/26 10:55:32;;;;;;;;;;;22.30;44.10;;;;;;493049;239;1266;-47
2021/10/26 10:57:33;;;;;;;;;;;22.30;44.10;;;;;;493764;239;1262;-47
2021/10/26 10:59:34;;;;;;;;;;;22.30;44.00;;;;;;493857;239;2190;-47
2021/10/26 11:01:36;;;;;;;;;;;22.30;44.00;;;;;;493756;239;1387;-47
2021/10/26 11:03:37;;;;;;;;;;;22.30;44.00;;;;;;493842;239;1725;-47
2021/10/26 11:05:38;;;;;;;;;;;22.30;44.10;;;;;;494020;239;1315;-47
2021/10/26 11:07:40;;;;;;;;;;;22.30;44.10;;;;;;493878;239;1223;-48
2021/10/26 11:09:41;;;;;;;;;;;22.30;44.00;;;;;;493760;239;2022;-47
2021/10/26 11:11:42;;;;;;;;;;;22.30;44.00;;;;;;493718;239;1204;-47
2021/10/26 11:13:44;;;;;;;;;;;22.30;44.00;;;;;;494098;239;1145;-47
2021/10/26 11:15:45;;;;;;;;;;;22.30;44.00;;;;;;493914;239;1313;-48
2021/10/26 11:17:49;;;;;;;;;;;22.30;44.00;;;;;;493973;239;1212;-48
2021/10/26 11:19:48;;;;;;;;;;;22.40;44.00;;;;;;493659;241;2131;-47
2021/10/26 11:21:49;;;;;;;;;;;22.30;44.00;;;;;;493777;239;1194;-47
2021/10/26 11:23:50;;;;;;;;;;;22.30;44.00;;;;;;493443;239;1228;-47
2021/10/26 11:25:51;;;;;;;;;;;22.40;44.10;;;;;;493451;239;1097;-47
2021/10/26 11:27:53;;;;;;;;;;;22.40;44.10;;;;;;493563;239;1387;-47
2021/10/26 11:29:58;;;;;;;;;;;22.40;44.10;;;;;;493673;239;1121;-48
2021/10/26 11:31:56;;;;;;;;;;;22.40;44.10;;;;;;493417;241;2093;-47
2021/10/26 11:33:57;;;;;;;;;;;22.30;44.00;;;;;;493873;239;1061;-47
2021/10/26 11:36:00;;;;;;;;;;;22.40;44.10;;;;;;493838;239;1082;-47
2021/10/26 11:38:00;;;;;;;;;;;22.30;44.10;;;;;;493505;239;2129;-47
2021/10/26 11:40:01;;;;;;;;;;;22.40;44.10;;;;;;493855;239;2120;-47
2021/10/26 11:42:04;;;;;;;;;;;22.40;44.10;;;;;;493754;239;1076;-47
2021/10/26 11:44:04;;;;;;;;;;;22.40;44.10;;;;;;493911;241;2325;-47
2021/10/26 11:46:06;;;;;;;;;;;22.40;44.10;;;;;;494179;239;1107;-47
2021/10/26 11:48:07;;;;;;;;;;;22.40;44.10;;;;;;493980;239;1351;-47
2021/10/26 11:50:08;;;;;;;;;;;22.40;44.00;;;;;;493857;239;1183;-47
2021/10/26 11:52:10;;;;;;;;;;;22.40;44.10;;;;;;493738;239;1274;-47
2021/10/26 11:54:13;;;;;;;;;;;22.40;44.10;;;;;;493841;239;1270;-47
2021/10/26 11:56:13;;;;;;;;;;;22.40;44.00;;;;;;494227;239;1762;-47
2021/10/26 11:58:16;;;;;;;;;;;22.40;44.00;;;;;;494725;239;820;-47
2021/10/26 12:00:16;;;;;;;;;;;22.40;44.00;;;;;;494549;241;2194;-47
2021/10/26 12:02:17;;;;;;;;;;;22.40;44.00;;;;;;494454;239;1134;-47